Time;durP1;ratioP1;P1;durP2;ratioP2;P2;SDS_P1;SDS_P2;PMS_P1;PMS_P2;Temp;Humidity;BMP_temperature;BMP_pressure;BME280_temperature;BME280_humidity;BME280_pressure;Samples;Min_cycle;Max_cycle;Signal;HPM_P1;HPM_P2
2021/10/06 00:01:51;;;;;;;8.88;4.93;;;11.80;99.90;;;;;;5091921;28;20048;-67
2021/10/06 00:04:16;;;;;;;7.95;4.57;;;11.80;99.90;;;;;;5093142;28;20028;-67
2021/10/06 00:06:42;;;;;;;9.90;4.78;;;11.70;99.90;;;;;;5093568;28;20054;-67
2021/10/06 00:09:08;;;;;;;10.43;4.72;;;11.70;99.90;;;;;;5091582;28;20160;-67
2021/10/06 00:11:34;;;;;;;10.10;4.50;;;11.80;99.90;;;;;;5092994;28;20115;-67
2021/10/06 00:14:00;;;;;;;7.93;5.05;;;11.80;99.90;;;;;;5093343;28;20032;-67
2021/10/06 00:16:26;;;;;;;11.15;5.30;;;11.80;99.90;;;;;;5091734;28;20073;-67
2021/10/06 00:18:52;;;;;;;9.75;5.88;;;11.80;99.90;;;;;;5092724;28;20438;-67
2021/10/06 00:21:18;;;;;;;10.98;4.68;;;11.70;99.90;;;;;;5091672;28;20048;-67
2021/10/06 00:23:43;;;;;;;7.60;4.78;;;11.70;99.90;;;;;;5092927;28;20051;-67
2021/10/06 00:26:09;;;;;;;11.77;4.60;;;11.70;99.90;;;;;;5092822;28;20032;-67
2021/10/06 00:28:35;;;;;;;8.88;4.43;;;11.70;99.90;;;;;;5096160;28;20534;-66
2021/10/06 00:31:01;;;;;;;8.32;4.70;;;11.70;99.90;;;;;;5097001;28;20047;-67
2021/10/06 00:33:26;;;;;;;8.65;4.88;;;11.60;99.90;;;;;;5096065;28;20040;-67
2021/10/06 00:35:56;;;;;;;8.38;3.65;;;11.60;99.90;;;;;;5096898;28;20506;-67
2021/10/06 00:38:22;;;;;;;9.40;3.78;;;11.60;99.90;;;;;;5096774;28;20058;-66
2021/10/06 00:40:49;;;;;;;8.70;3.97;;;11.60;99.90;;;;;;5095619;28;20153;-67
2021/10/06 00:43:14;;;;;;;10.82;4.43;;;11.60;99.90;;;;;;5096828;28;20044;-67
2021/10/06 00:45:40;;;;;;;12.10;4.30;;;11.60;99.90;;;;;;5096641;28;20050;-67
2021/10/06 00:48:06;;;;;;;8.25;3.90;;;11.60;99.90;;;;;;5095522;28;20087;-67
2021/10/06 00:50:32;;;;;;;8.82;3.65;;;11.50;99.90;;;;;;5094850;28;20140;-67
2021/10/06 00:52:58;;;;;;;6.13;3.60;;;11.50;99.90;;;;;;5096608;28;20058;-67
2021/10/06 00:55:24;;;;;;;10.00;4.20;;;11.50;99.90;;;;;;5096566;28;20043;-67
2021/10/06 00:57:49;;;;;;;7.55;4.07;;;11.50;99.90;;;;;;5095009;28;20040;-67
2021/10/06 01:00:15;;;;;;;9.18;3.53;;;11.60;99.90;;;;;;5096304;28;20035;-67
2021/10/06 01:02:41;;;;;;;6.95;3.47;;;11.50;99.90;;;;;;5096590;28;20048;-67
2021/10/06 01:05:08;;;;;;;7.43;3.25;;;11.50;99.90;;;;;;5095124;28;20488;-67
2021/10/06 01:07:34;;;;;;;4.65;3.00;;;11.40;99.90;;;;;;5095140;28;20372;-67
2021/10/06 01:10:03;;;;;;;11.32;3.10;;;11.40;99.90;;;;;;5095647;28;20089;-67
2021/10/06 01:12:28;;;;;;;8.57;3.00;;;11.40;99.90;;;;;;5096133;28;20058;-66
2021/10/06 01:14:55;;;;;;;4.88;2.58;;;11.40;99.90;;;;;;5094985;28;20032;-67
2021/10/06 01:17:21;;;;;;;4.13;2.50;;;11.40;99.90;;;;;;5096235;28;20499;-67
2021/10/06 01:19:47;;;;;;;6.93;2.63;;;11.40;99.90;;;;;;5095752;28;20399;-67
2021/10/06 01:22:15;;;;;;;7.07;2.80;;;11.30;99.90;;;;;;5094813;28;20047;-67
2021/10/06 01:24:40;;;;;;;4.50;2.65;;;11.40;99.90;;;;;;5095989;28;20119;-68
2021/10/06 01:27:06;;;;;;;9.52;2.92;;;11.30;99.90;;;;;;5096011;28;20491;-67
2021/10/06 01:29:32;;;;;;;6.68;2.45;;;11.30;99.90;;;;;;5094117;28;20052;-67
2021/10/06 01:31:57;;;;;;;7.40;2.40;;;11.30;99.90;;;;;;5096216;28;20039;-68
2021/10/06 01:34:24;;;;;;;5.65;3.25;;;11.30;99.90;;;;;;5095730;28;20119;-67
2021/10/06 01:36:52;;;;;;;4.75;2.55;;;11.30;99.90;;;;;;5095983;28;20027;-67
2021/10/06 01:39:19;;;;;;;5.50;3.30;;;11.30;99.90;;;;;;5094493;28;20058;-67
2021/10/06 01:41:46;;;;;;;5.97;3.03;;;11.30;99.90;;;;;;5095662;28;20042;-68
2021/10/06 01:44:13;;;;;;;4.38;2.80;;;11.30;99.90;;;;;;5095514;28;20119;-67
2021/10/06 01:46:39;;;;;;;7.15;3.58;;;11.30;99.90;;;;;;5094977;28;20067;-67
2021/10/06 01:49:05;;;;;;;7.47;3.15;;;11.40;99.90;;;;;;5095106;28;20480;-67
2021/10/06 01:51:30;;;;;;;5.85;3.05;;;11.40;99.90;;;;;;5095129;28;20492;-67
2021/10/06 01:53:56;;;;;;;6.38;2.83;;;11.30;99.90;;;;;;5095378;28;20036;-67
2021/10/06 01:56:22;;;;;;;7.18;2.97;;;11.40;99.90;;;;;;5095441;28;20043;-67
2021/10/06 01:58:49;;;;;;;7.40;2.88;;;11.30;99.90;;;;;;5095027;28;20028;-68
2021/10/06 02:01:15;;;;;;;7.80;3.03;;;11.30;99.90;;;;;;5094079;28;20048;-68
2021/10/06 02:03:41;;;;;;;6.20;3.95;;;11.30;99.90;;;;;;5095427;28;20461;-67
2021/10/06 02:06:08;;;;;;;9.35;3.67;;;11.30;99.90;;;;;;5095292;28;20040;-67
2021/10/06 02:08:34;;;;;;;6.60;3.55;;;11.30;99.90;;;;;;5094970;28;20032;-68
2021/10/06 02:10:59;;;;;;;9.63;3.90;;;11.30;99.90;;;;;;5094976;28;20051;-67
2021/10/06 02:13:25;;;;;;;5.45;3.35;;;11.40;99.90;;;;;;5094204;28;20064;-68
2021/10/06 02:15:51;;;;;;;7.22;3.10;;;11.40;99.90;;;;;;5095042;28;20048;-68
2021/10/06 02:18:16;;;;;;;5.25;3.53;;;11.40;99.90;;;;;;5093796;28;20392;-67
2021/10/06 02:20:42;;;;;;;7.47;3.80;;;11.40;99.90;;;;;;5094579;28;20086;-67
2021/10/06 02:23:09;;;;;;;5.18;3.88;;;11.40;99.90;;;;;;5094878;28;20046;-67
2021/10/06 02:25:35;;;;;;;6.88;3.85;;;11.40;99.90;;;;;;5094527;28;20557;-67
2021/10/06 02:28:00;;;;;;;5.38;3.45;;;11.40;99.90;;;;;;5094759;28;20040;-68
2021/10/06 02:30:26;;;;;;;7.03;3.40;;;11.40;99.90;;;;;;5093191;28;20040;-67
2021/10/06 02:32:52;;;;;;;9.95;4.28;;;11.40;99.90;;;;;;5094511;28;20040;-68
2021/10/06 02:35:18;;;;;;;7.40;4.05;;;11.40;99.90;;;;;;5094434;28;20039;-67
2021/10/06 02:37:43;;;;;;;8.27;4.10;;;11.40;99.90;;;;;;5094727;28;20036;-67
2021/10/06 02:40:14;;;;;;;7.90;3.33;;;11.50;99.90;;;;;;5092776;28;20040;-67
2021/10/06 02:42:40;;;;;;;9.88;4.38;;;11.40;99.90;;;;;;5093062;28;20040;-68
2021/10/06 02:45:08;;;;;;;7.00;3.60;;;11.40;99.90;;;;;;5094317;28;20085;-67
2021/10/06 02:47:34;;;;;;;8.95;3.70;;;11.40;99.90;;;;;;5093219;28;20097;-67
2021/10/06 02:50:00;;;;;;;6.07;4.00;;;11.40;99.90;;;;;;5093572;28;20036;-67
2021/10/06 02:52:25;;;;;;;11.18;4.65;;;11.40;99.90;;;;;;5094370;28;20036;-68
2021/10/06 02:54:51;;;;;;;8.13;4.50;;;11.40;99.90;;;;;;5094398;28;20033;-67
2021/10/06 02:57:16;;;;;;;8.80;4.22;;;11.40;99.90;;;;;;5094056;28;20040;-68
2021/10/06 02:59:42;;;;;;;9.75;4.78;;;11.40;99.90;;;;;;5092660;28;20044;-67
2021/10/06 03:02:08;;;;;;;8.82;4.70;;;11.30;99.90;;;;;;5094027;28;20050;-67
2021/10/06 03:04:33;;;;;;;7.93;4.75;;;11.30;99.90;;;;;;5094499;28;20048;-67
2021/10/06 03:06:59;;;;;;;8.13;4.97;;;11.30;99.90;;;;;;5094309;28;20040;-67
2021/10/06 03:09:25;;;;;;;9.13;4.63;;;11.30;99.90;;;;;;5093912;28;20039;-67
2021/10/06 03:11:50;;;;;;;9.68;4.60;;;11.30;99.90;;;;;;5094240;28;20084;-67
2021/10/06 03:14:16;;;;;;;6.70;4.18;;;11.20;99.90;;;;;;5092513;28;20044;-67
2021/10/06 03:16:41;;;;;;;10.82;6.10;;;11.20;99.90;;;;;;5092415;28;20115;-68
2021/10/06 03:19:07;;;;;;;9.60;5.68;;;11.30;99.90;;;;;;5094060;28;20047;-68
2021/10/06 03:21:32;;;;;;;8.80;5.05;;;11.30;99.90;;;;;;5093792;28;20043;-67
2021/10/06 03:23:58;;;;;;;9.70;4.97;;;11.30;99.90;;;;;;5093707;28;20047;-67
2021/10/06 03:26:24;;;;;;;14.73;5.60;;;11.30;99.90;;;;;;5092433;28;20044;-67
2021/10/06 03:28:49;;;;;;;12.70;5.60;;;11.20;99.90;;;;;;5093668;28;20039;-68
2021/10/06 03:31:15;;;;;;;11.52;5.47;;;11.20;99.90;;;;;;5093268;28;20040;-68
2021/10/06 03:33:41;;;;;;;11.32;6.15;;;11.30;99.90;;;;;;5094182;28;20111;-68
2021/10/06 03:36:07;;;;;;;8.90;5.20;;;11.30;99.90;;;;;;5093591;28;20123;-68
2021/10/06 03:38:32;;;;;;;11.10;5.30;;;11.30;99.90;;;;;;5092054;28;20119;-67
2021/10/06 03:40:58;;;;;;;8.23;5.07;;;11.30;99.90;;;;;;5093384;28;20114;-68
2021/10/06 03:43:25;;;;;;;9.73;5.03;;;11.30;99.90;;;;;;5093697;28;20028;-67
2021/10/06 03:45:50;;;;;;;11.02;5.75;;;11.30;99.90;;;;;;5093595;28;20040;-68
2021/10/06 03:48:16;;;;;;;8.02;5.43;;;11.30;99.90;;;;;;5092588;28;20115;-67
2021/10/06 03:50:43;;;;;;;8.48;5.47;;;11.30;99.90;;;;;;5092978;28;20526;-67
2021/10/06 03:53:09;;;;;;;8.90;4.78;;;11.30;99.90;;;;;;5093461;28;20040;-67
2021/10/06 03:55:35;;;;;;;9.48;5.75;;;11.40;99.90;;;;;;5093479;28;20040;-67
2021/10/06 03:58:01;;;;;;;9.32;5.70;;;11.40;99.90;;;;;;5093223;28;20039;-68
2021/10/06 04:00:27;;;;;;;10.95;6.00;;;11.40;99.90;;;;;;5092905;28;20511;-67
2021/10/06 04:02:52;;;;;;;9.13;5.57;;;11.40;99.90;;;;;;5094629;28;20047;-68
2021/10/06 04:05:18;;;;;;;7.43;5.45;;;11.40;99.90;;;;;;5096538;28;20048;-67
2021/10/06 04:07:43;;;;;;;9.82;6.47;;;11.40;99.90;;;;;;5097625;28;20044;-68
2021/10/06 04:10:09;;;;;;;9.60;6.65;;;11.40;99.90;;;;;;5097189;28;20047;-67
2021/10/06 04:12:35;;;;;;;13.57;6.45;;;11.40;99.90;;;;;;5097489;28;20046;-67
2021/10/06 04:15:01;;;;;;;9.20;5.88;;;11.40;99.90;;;;;;5097447;28;20032;-68
2021/10/06 04:17:26;;;;;;;10.73;5.43;;;11.40;99.90;;;;;;5097091;28;20396;-67
2021/10/06 04:19:52;;;;;;;8.52;5.78;;;11.40;99.90;;;;;;5097133;28;20480;-68
2021/10/06 04:22:17;;;;;;;9.10;6.22;;;11.40;99.90;;;;;;5096182;28;20040;-68
2021/10/06 04:24:43;;;;;;;9.90;5.57;;;11.30;99.90;;;;;;5097003;28;20044;-67
2021/10/06 04:27:09;;;;;;;10.93;5.75;;;11.40;99.90;;;;;;5097010;28;20044;-68
2021/10/06 04:29:35;;;;;;;13.80;5.03;;;11.40;99.90;;;;;;5096648;28;20488;-67
2021/10/06 04:32:01;;;;;;;7.95;5.45;;;11.40;99.90;;;;;;5095532;28;20097;-67
2021/10/06 04:34:26;;;;;;;8.35;4.60;;;11.40;99.90;;;;;;5097134;28;20042;-68
2021/10/06 04:36:52;;;;;;;9.70;4.40;;;11.40;99.90;;;;;;5095764;28;20048;-68
2021/10/06 04:39:18;;;;;;;7.43;4.75;;;11.40;99.90;;;;;;5096515;28;20043;-67
2021/10/06 04:41:43;;;;;;;7.28;4.05;;;11.40;99.90;;;;;;5095675;28;20048;-68
2021/10/06 04:44:09;;;;;;;8.18;4.20;;;11.40;99.90;;;;;;5096717;28;20032;-67
2021/10/06 04:46:34;;;;;;;7.40;3.92;;;11.40;99.90;;;;;;5097147;28;20578;-68
2021/10/06 04:49:02;;;;;;;14.10;4.47;;;11.40;99.90;;;;;;5096393;28;20449;-67
2021/10/06 04:51:28;;;;;;;8.90;4.03;;;11.40;99.90;;;;;;5096629;28;20070;-68
2021/10/06 04:53:53;;;;;;;11.57;3.40;;;11.40;99.90;;;;;;5096976;28;20042;-68
2021/10/06 04:56:19;;;;;;;5.93;4.03;;;11.40;99.90;;;;;;5096820;28;20119;-68
2021/10/06 04:58:45;;;;;;;9.38;3.95;;;11.40;99.90;;;;;;5096482;28;20035;-68
2021/10/06 05:01:10;;;;;;;7.13;2.97;;;11.30;99.90;;;;;;5095184;28;20039;-68
2021/10/06 05:03:36;;;;;;;6.68;3.15;;;11.30;99.90;;;;;;5096609;28;20032;-68
2021/10/06 05:06:01;;;;;;;7.07;3.55;;;11.20;99.90;;;;;;5096616;28;20544;-68
2021/10/06 05:08:27;;;;;;;8.48;3.40;;;11.30;99.90;;;;;;5096619;28;20040;-68
2021/10/06 05:10:54;;;;;;;6.82;3.88;;;11.20;99.90;;;;;;5096073;28;20044;-67
2021/10/06 05:13:19;;;;;;;8.57;4.68;;;11.30;99.90;;;;;;5096423;28;20115;-68
2021/10/06 05:15:45;;;;;;;8.50;4.15;;;11.30;99.90;;;;;;5094638;28;20467;-68
2021/10/06 05:18:11;;;;;;;8.38;4.10;;;11.30;99.90;;;;;;5096008;28;20404;-67
2021/10/06 05:20:36;;;;;;;5.97;4.25;;;11.30;99.90;;;;;;5095563;28;20039;-67
2021/10/06 05:23:03;;;;;;;8.85;4.35;;;11.30;99.90;;;;;;5094853;28;20070;-67
2021/10/06 05:25:29;;;;;;;8.35;3.50;;;11.30;99.90;;;;;;5096246;28;20508;-68
2021/10/06 05:27:56;;;;;;;6.60;4.07;;;11.30;99.90;;;;;;5095995;28;20465;-67
2021/10/06 05:30:22;;;;;;;6.38;4.68;;;11.40;99.90;;;;;;5095409;28;20124;-68
2021/10/06 05:32:49;;;;;;;9.52;4.25;;;11.40;99.90;;;;;;5095939;28;20115;-67
2021/10/06 05:35:15;;;;;;;8.20;4.75;;;11.30;99.90;;;;;;5095955;28;20044;-67
2021/10/06 05:37:41;;;;;;;8.13;4.90;;;11.30;99.90;;;;;;5095923;28;20044;-67
2021/10/06 05:40:07;;;;;;;8.90;5.03;;;11.30;99.90;;;;;;5095359;28;20085;-68
2021/10/06 05:42:33;;;;;;;9.05;5.60;;;11.30;99.90;;;;;;5095520;28;20040;-68
2021/10/06 05:44:59;;;;;;;8.82;5.40;;;11.30;99.90;;;;;;5095500;28;20043;-68
2021/10/06 05:47:24;;;;;;;6.28;4.93;;;11.30;99.90;;;;;;5095544;28;20054;-68
2021/10/06 05:49:51;;;;;;;7.38;5.32;;;11.30;99.90;;;;;;5093930;28;20102;-68
2021/10/06 05:52:17;;;;;;;11.45;5.00;;;11.40;99.90;;;;;;5095320;28;20048;-68
2021/10/06 05:54:42;;;;;;;15.50;5.20;;;11.30;99.90;;;;;;5095544;28;20040;-68
2021/10/06 05:57:08;;;;;;;6.28;4.65;;;11.40;99.90;;;;;;5095296;28;20111;-67
2021/10/06 05:59:34;;;;;;;6.70;4.80;;;11.40;99.90;;;;;;5094860;28;20036;-67
2021/10/06 06:02:00;;;;;;;5.95;4.47;;;11.40;99.90;;;;;;5095066;28;20040;-67
2021/10/06 06:04:27;;;;;;;9.52;4.90;;;11.40;99.90;;;;;;5094032;28;20044;-66
2021/10/06 06:06:52;;;;;;;10.05;4.88;;;11.40;99.90;;;;;;5095217;28;20040;-67
2021/10/06 06:09:20;;;;;;;12.18;4.80;;;11.40;99.90;;;;;;5094725;28;20046;-67
2021/10/06 06:11:47;;;;;;;7.95;4.80;;;11.40;99.90;;;;;;5094718;28;20044;-67
2021/10/06 06:14:12;;;;;;;7.47;4.60;;;11.40;99.90;;;;;;5095076;28;20119;-67
2021/10/06 06:16:38;;;;;;;7.20;4.38;;;11.40;99.90;;;;;;5093706;28;20086;-67
2021/10/06 06:19:04;;;;;;;8.43;4.13;;;11.40;99.90;;;;;;5094691;28;20403;-67
2021/10/06 06:21:29;;;;;;;6.50;3.85;;;11.40;99.90;;;;;;5094726;28;20044;-67
2021/10/06 06:23:55;;;;;;;4.70;3.10;;;11.40;99.90;;;;;;5094675;28;20040;-67
2021/10/06 06:26:21;;;;;;;6.00;3.40;;;11.40;99.90;;;;;;5094038;28;20101;-67
2021/10/06 06:28:47;;;;;;;6.13;3.45;;;11.40;99.90;;;;;;5094073;28;20051;-67
2021/10/06 06:31:13;;;;;;;6.18;3.92;;;11.40;99.90;;;;;;5094668;28;20040;-68
2021/10/06 06:33:39;;;;;;;5.03;3.45;;;11.40;99.90;;;;;;5094675;28;20585;-66
2021/10/06 06:36:05;;;;;;;6.97;3.42;;;11.40;99.90;;;;;;5093412;28;20050;-67
2021/10/06 06:38:31;;;;;;;7.70;3.28;;;11.40;99.90;;;;;;5094658;28;20480;-67
2021/10/06 06:40:57;;;;;;;9.70;4.05;;;11.40;99.90;;;;;;5094220;28;20032;-66
2021/10/06 06:43:23;;;;;;;5.53;3.60;;;11.40;99.90;;;;;;5095054;28;20364;-66
2021/10/06 06:45:49;;;;;;;5.68;3.80;;;11.50;99.90;;;;;;5094481;28;20396;-66
2021/10/06 06:48:15;;;;;;;4.95;3.80;;;11.40;99.90;;;;;;5094502;28;20040;-66
2021/10/06 06:50:40;;;;;;;10.23;4.35;;;11.40;99.90;;;;;;5094231;28;20126;-66
2021/10/06 06:53:06;;;;;;;6.13;4.13;;;11.40;99.90;;;;;;5094345;28;20043;-66
2021/10/06 06:55:31;;;;;;;5.15;4.00;;;11.40;99.90;;;;;;5094477;28;20036;-66
2021/10/06 06:57:57;;;;;;;7.88;3.95;;;11.40;99.90;;;;;;5094150;28;20391;-66
2021/10/06 07:00:23;;;;;;;9.80;4.00;;;11.40;99.90;;;;;;5094154;28;20048;-66
2021/10/06 07:02:48;;;;;;;5.22;3.50;;;11.50;99.90;;;;;;5094179;28;20092;-66
2021/10/06 07:05:14;;;;;;;7.53;3.72;;;11.50;99.90;;;;;;5094297;28;20114;-66
2021/10/06 07:07:40;;;;;;;7.97;3.70;;;11.50;99.90;;;;;;5093944;28;20090;-66
2021/10/06 07:10:06;;;;;;;7.43;3.58;;;11.50;99.90;;;;;;5092415;28;20044;-66
2021/10/06 07:12:32;;;;;;;5.15;3.22;;;11.60;99.90;;;;;;5093728;28;20040;-66
2021/10/06 07:14:58;;;;;;;5.65;3.05;;;11.60;99.90;;;;;;5094169;28;20043;-66
2021/10/06 07:17:23;;;;;;;3.95;2.85;;;11.60;99.90;;;;;;5094149;28;20039;-66
2021/10/06 07:19:49;;;;;;;8.23;3.13;;;11.60;99.90;;;;;;5093583;28;20167;-66
2021/10/06 07:22:16;;;;;;;4.10;2.83;;;11.60;99.90;;;;;;5092468;28;20048;-65
2021/10/06 07:24:42;;;;;;;4.18;3.17;;;11.70;99.90;;;;;;5092768;28;20043;-66
2021/10/06 07:27:10;;;;;;;4.43;2.72;;;11.70;99.90;;;;;;5093658;28;20073;-67
2021/10/06 07:29:37;;;;;;;3.92;2.90;;;11.80;99.90;;;;;;5093362;28;20043;-67
2021/10/06 07:32:03;;;;;;;4.78;3.10;;;11.70;99.90;;;;;;5093627;28;20031;-67
2021/10/06 07:34:28;;;;;;;5.47;2.72;;;11.70;99.90;;;;;;5093755;28;20097;-67
2021/10/06 07:36:54;;;;;;;6.53;2.92;;;11.70;99.90;;;;;;5092673;28;20114;-66
2021/10/06 07:39:20;;;;;;;6.72;3.47;;;11.70;99.90;;;;;;5093051;28;20461;-66
2021/10/06 07:41:46;;;;;;;3.88;2.70;;;11.70;99.90;;;;;;5093705;28;20044;-66
2021/10/06 07:44:12;;;;;;;4.72;2.78;;;11.70;99.90;;;;;;5092181;28;20059;-66
2021/10/06 07:46:38;;;;;;;5.95;3.28;;;11.70;99.90;;;;;;5093475;28;20035;-66
2021/10/06 07:49:04;;;;;;;3.35;2.63;;;11.80;99.90;;;;;;5093182;28;20071;-66
2021/10/06 07:51:29;;;;;;;5.15;2.75;;;11.80;99.90;;;;;;5092103;28;20078;-66
2021/10/06 07:53:55;;;;;;;3.85;2.10;;;11.80;99.90;;;;;;5093380;28;20173;-67
2021/10/06 07:56:22;;;;;;;3.92;2.30;;;11.90;99.90;;;;;;5093155;28;20040;-70
2021/10/06 07:58:48;;;;;;;5.50;2.75;;;12.00;99.90;;;;;;5093160;28;20075;-69
2021/10/06 08:01:14;;;;;;;6.50;2.22;;;12.10;99.90;;;;;;5091795;28;20087;-70
2021/10/06 08:03:40;;;;;;;2.85;2.03;;;12.10;99.90;;;;;;5093564;28;20073;-69
2021/10/06 08:06:05;;;;;;;3.55;2.20;;;12.20;99.90;;;;;;5093360;28;20044;-70
2021/10/06 08:08:31;;;;;;;3.38;1.90;;;12.20;99.90;;;;;;5091566;28;20044;-70
2021/10/06 08:10:58;;;;;;;2.90;2.15;;;12.30;99.90;;;;;;5092936;28;20039;-69
2021/10/06 08:13:24;;;;;;;3.42;2.08;;;12.40;99.90;;;;;;5093399;28;20040;-69
2021/10/06 08:15:51;;;;;;;4.30;2.63;;;12.40;99.90;;;;;;5092868;28;20040;-70
2021/10/06 08:18:19;;;;;;;4.03;2.25;;;12.40;99.90;;;;;;5091835;28;20506;-70
2021/10/06 08:20:46;;;;;;;3.50;2.30;;;12.50;99.90;;;;;;5092754;28;20040;-70
2021/10/06 08:23:12;;;;;;;3.92;2.33;;;12.50;99.90;;;;;;5093493;28;20415;-70
2021/10/06 08:25:38;;;;;;;4.25;2.13;;;12.50;99.90;;;;;;5093003;28;20040;-69
2021/10/06 08:28:03;;;;;;;3.78;2.33;;;12.50;99.90;;;;;;5093053;28;20040;-70
2021/10/06 08:30:29;;;;;;;5.75;2.65;;;12.50;99.90;;;;;;5092629;28;20044;-69
2021/10/06 08:32:55;;;;;;;3.97;2.25;;;12.50;99.90;;;;;;5093466;28;20111;-70
2021/10/06 08:35:21;;;;;;;4.13;2.88;;;12.50;99.90;;;;;;5093102;28;20127;-69
2021/10/06 08:37:46;;;;;;;5.75;2.47;;;12.40;99.90;;;;;;5092840;28;20126;-69
2021/10/06 08:40:12;;;;;;;4.30;2.70;;;12.30;99.90;;;;;;5092775;28;20083;-69
2021/10/06 08:42:39;;;;;;;3.95;2.72;;;12.30;99.90;;;;;;5093184;28;20476;-69
2021/10/06 08:45:09;;;;;;;4.05;2.78;;;12.30;99.90;;;;;;5093060;28;20042;-69
2021/10/06 08:47:36;;;;;;;4.85;3.33;;;12.10;99.90;;;;;;5091721;28;20044;-69
2021/10/06 08:50:03;;;;;;;4.93;3.63;;;12.10;99.90;;;;;;5096282;28;20047;-69
2021/10/06 08:52:29;;;;;;;6.45;4.60;;;12.10;99.90;;;;;;5095255;28;20040;-69
2021/10/06 08:54:54;;;;;;;5.45;3.90;;;12.10;99.90;;;;;;5096819;28;20036;-69
2021/10/06 08:57:20;;;;;;;5.65;3.75;;;12.00;99.90;;;;;;5096546;28;20040;-69
2021/10/06 08:59:46;;;;;;;5.10;3.85;;;12.00;99.90;;;;;;5095003;28;20040;-69
2021/10/06 09:02:13;;;;;;;6.82;4.07;;;12.00;99.90;;;;;;5095175;28;20433;-69
2021/10/06 09:04:40;;;;;;;5.03;3.78;;;12.00;99.90;;;;;;5095040;28;20044;-69
2021/10/06 09:07:06;;;;;;;6.68;4.10;;;12.00;99.90;;;;;;5096372;28;20040;-69
2021/10/06 09:09:33;;;;;;;5.68;4.00;;;12.00;99.90;;;;;;5096168;28;20040;-69
2021/10/06 09:11:59;;;;;;;10.95;4.78;;;12.00;99.90;;;;;;5094904;28;20040;-69
2021/10/06 09:14:25;;;;;;;5.68;4.18;;;12.00;99.90;;;;;;5096515;28;20063;-69
2021/10/06 09:17:08;;;;;;;6.15;4.28;;;12.00;99.90;;;;;;5096027;28;20071;-69
2021/10/06 09:19:38;;;;;;;6.90;3.90;;;12.00;99.90;;;;;;5095682;28;20480;-70
2021/10/06 09:22:04;;;;;;;4.85;3.90;;;12.00;99.90;;;;;;5095124;28;20059;-70
2021/10/06 09:24:48;;;;;;;4.90;3.72;;;12.00;99.90;;;;;;5094861;28;20408;-70
2021/10/06 09:27:19;;;;;;;5.03;3.72;;;12.10;99.90;;;;;;5095726;28;20093;-69
2021/10/06 09:29:49;;;;;;;4.05;3.38;;;12.00;99.90;;;;;;5073967;28;20115;-69
2021/10/06 09:32:35;;;;;;;5.40;3.63;;;12.10;99.90;;;;;;5075449;28;20049;-69
2021/10/06 09:35:16;;;;;;;4.57;3.70;;;12.10;99.90;;;;;;5075987;28;20127;-69
2021/10/06 09:37:51;;;;;;;5.28;3.63;;;12.10;99.90;;;;;;5075677;28;20049;-69
2021/10/06 09:40:21;;;;;;;6.10;3.60;;;12.20;99.90;;;;;;5073748;28;20048;-69
2021/10/06 09:42:49;;;;;;;8.38;3.78;;;12.30;99.90;;;;;;5075456;28;20048;-69
2021/10/06 09:45:36;;;;;;;6.32;3.70;;;12.40;99.90;;;;;;5075677;28;20393;-69
2021/10/06 09:48:12;;;;;;;4.90;3.28;;;12.50;99.90;;;;;;5075411;28;20048;-69
2021/10/06 09:50:48;;;;;;;4.80;3.83;;;12.60;99.90;;;;;;5073730;28;20083;-69
2021/10/06 09:53:19;;;;;;;5.05;3.20;;;12.70;99.90;;;;;;5073996;28;20047;-70
2021/10/06 09:55:50;;;;;;;5.47;3.03;;;12.70;99.90;;;;;;5073908;28;20040;-70
2021/10/06 09:58:16;;;;;;;5.72;3.45;;;12.70;99.90;;;;;;5074192;28;20120;-70
2021/10/06 10:00:44;;;;;;;5.70;2.92;;;12.80;99.90;;;;;;5074143;28;20036;-70
2021/10/06 10:03:11;;;;;;;6.43;4.00;;;12.80;99.90;;;;;;5073616;28;20045;-70
2021/10/06 10:05:39;;;;;;;5.30;3.30;;;12.70;99.90;;;;;;5074619;28;20541;-68
2021/10/06 10:08:05;;;;;;;5.53;3.17;;;12.80;99.90;;;;;;5074907;28;20040;-69
2021/10/06 10:10:36;;;;;;;3.55;2.90;;;12.80;99.90;;;;;;5074490;28;20489;-70
2021/10/06 10:13:03;;;;;;;6.47;3.42;;;12.80;99.90;;;;;;5074565;28;20067;-70
2021/10/06 10:15:29;;;;;;;4.32;3.35;;;12.80;99.90;;;;;;5074625;28;20037;-70
2021/10/06 10:17:59;;;;;;;4.55;3.60;;;12.90;99.90;;;;;;5074500;28;20123;-70
2021/10/06 10:20:26;;;;;;;6.15;3.70;;;12.90;99.90;;;;;;5074488;28;20044;-69
2021/10/06 10:23:00;;;;;;;5.90;4.22;;;12.80;99.90;;;;;;5074507;28;20528;-70
2021/10/06 10:25:29;;;;;;;3.42;3.05;;;12.90;99.90;;;;;;5073367;28;20041;-70
2021/10/06 10:28:20;;;;;;;4.82;3.17;;;12.90;99.90;;;;;;5075223;28;20047;-70
2021/10/06 10:30:55;;;;;;;5.32;3.80;;;12.90;99.90;;;;;;5074206;28;20051;-70
2021/10/06 10:33:43;;;;;;;4.72;3.42;;;12.90;99.90;;;;;;5073071;28;20069;-70
2021/10/06 10:36:34;;;;;;;6.82;3.50;;;13.00;99.90;;;;;;5074258;28;20428;-69
2021/10/06 10:39:05;;;;;;;7.60;3.72;;;13.10;99.90;;;;;;5073806;28;20384;-70
2021/10/06 10:41:52;;;;;;;5.70;3.38;;;13.10;99.90;;;;;;5073227;28;20063;-68
2021/10/06 10:44:31;;;;;;;6.88;4.70;;;13.10;99.90;;;;;;5074518;28;20052;-69
2021/10/06 10:47:05;;;;;;;8.68;6.20;;;13.10;99.90;;;;;;5074049;28;20457;-69
2021/10/06 10:49:48;;;;;;;7.20;5.35;;;13.10;99.90;;;;;;5073899;28;20070;-69
2021/10/06 10:52:15;;;;;;;7.60;3.92;;;13.20;99.90;;;;;;5074153;28;20492;-69
2021/10/06 10:54:43;;;;;;;6.47;3.65;;;13.10;99.90;;;;;;5073139;28;20048;-69
2021/10/06 10:57:25;;;;;;;6.30;3.60;;;13.20;99.90;;;;;;5074445;28;20119;-69
2021/10/06 10:59:54;;;;;;;6.25;3.58;;;13.20;99.90;;;;;;5072521;28;20115;-69
2021/10/06 11:02:32;;;;;;;5.10;3.30;;;13.20;99.90;;;;;;5073679;28;20369;-69
2021/10/06 11:04:59;;;;;;;4.50;3.55;;;13.30;99.90;;;;;;5073732;28;20594;-69
2021/10/06 11:07:26;;;;;;;4.63;3.38;;;13.30;99.90;;;;;;5073853;28;20071;-69
2021/10/06 11:09:57;;;;;;;4.35;3.22;;;13.40;99.90;;;;;;5073196;28;20070;-69
2021/10/06 11:12:22;;;;;;;6.15;3.33;;;13.40;99.90;;;;;;5073839;28;20036;-69
2021/10/06 11:15:10;;;;;;;5.95;3.40;;;13.40;99.90;;;;;;5072603;28;20036;-69
2021/10/06 11:17:35;;;;;;;7.70;3.70;;;13.50;99.90;;;;;;5071987;28;20048;-69
2021/10/06 11:20:01;;;;;;;4.10;2.72;;;13.50;99.90;;;;;;5055361;28;20049;-69
2021/10/06 11:22:29;;;;;;;5.50;3.17;;;13.60;99.90;;;;;;5073423;28;20050;-69
2021/10/06 11:24:59;;;;;;;3.97;2.97;;;13.70;99.90;;;;;;5072481;28;20123;-69
2021/10/06 11:27:27;;;;;;;4.88;3.15;;;13.70;99.90;;;;;;5073513;28;20507;-69
2021/10/06 11:29:56;;;;;;;9.20;3.58;;;13.70;99.90;;;;;;5073081;28;20044;-68
2021/10/06 11:32:21;;;;;;;4.80;4.20;;;13.70;99.90;;;;;;5073359;28;20067;-69
2021/10/06 11:34:54;;;;;;;4.25;3.80;;;13.70;99.90;;;;;;5073566;28;20024;-69
2021/10/06 11:37:28;;;;;;;5.78;3.90;;;13.70;99.90;;;;;;5073209;28;20090;-69
2021/10/06 11:39:55;;;;;;;3.35;3.05;;;13.80;99.90;;;;;;5073241;28;20562;-69
2021/10/06 11:42:30;;;;;;;6.93;3.40;;;13.80;99.90;;;;;;5073234;28;20036;-69
2021/10/06 11:44:56;;;;;;;4.57;2.70;;;13.80;99.90;;;;;;5073509;28;20400;-69
2021/10/06 11:47:21;;;;;;;5.32;3.10;;;13.80;99.90;;;;;;5073790;28;20123;-69
2021/10/06 11:49:51;;;;;;;5.72;3.38;;;13.80;99.90;;;;;;5071541;28;20053;-69
2021/10/06 11:52:20;;;;;;;5.50;3.00;;;13.70;99.90;;;;;;5072105;28;20049;-69
2021/10/06 11:54:47;;;;;;;6.85;3.28;;;13.60;99.90;;;;;;5073250;28;20120;-69
2021/10/06 11:57:14;;;;;;;5.95;3.47;;;13.60;99.90;;;;;;5073017;28;20497;-69
2021/10/06 11:59:44;;;;;;;5.80;3.55;;;13.50;99.90;;;;;;5072857;28;20119;-69
2021/10/06 12:02:15;;;;;;;4.50;3.53;;;13.50;99.90;;;;;;5072800;28;20037;-69
2021/10/06 12:04:43;;;;;;;5.50;3.50;;;13.50;99.90;;;;;;5071466;28;20044;-69
2021/10/06 12:07:14;;;;;;;5.90;3.25;;;13.40;99.90;;;;;;5071987;28;20041;-69
2021/10/06 12:09:55;;;;;;;6.00;4.32;;;13.40;99.90;;;;;;5072772;28;20043;-69
2021/10/06 12:12:26;;;;;;;6.05;3.75;;;13.40;99.90;;;;;;5072836;28;20500;-69
2021/10/06 12:15:00;;;;;;;7.20;4.00;;;13.40;99.90;;;;;;5079636;28;20115;-69
2021/10/06 12:17:27;;;;;;;4.95;3.25;;;13.40;99.90;;;;;;5089644;28;20093;-69
2021/10/06 12:20:14;;;;;;;6.22;3.35;;;13.50;99.90;;;;;;5090766;28;20058;-69
2021/10/06 12:22:55;;;;;;;5.43;3.40;;;13.50;99.90;;;;;;5092383;28;20055;-69
2021/10/06 12:25:23;;;;;;;6.00;4.03;;;13.50;99.90;;;;;;5097164;28;20119;-69
2021/10/06 12:27:56;;;;;;;6.07;3.47;;;13.50;99.90;;;;;;5097214;28;20048;-69
2021/10/06 12:30:27;;;;;;;4.03;2.92;;;13.50;99.90;;;;;;5095629;28;20082;-69
2021/10/06 12:33:14;;;;;;;6.38;3.58;;;13.50;99.90;;;;;;5096783;28;20438;-69
2021/10/06 12:35:45;;;;;;;4.72;3.10;;;13.50;99.90;;;;;;5095876;28;20032;-69
2021/10/06 12:38:11;;;;;;;4.22;3.13;;;13.60;99.90;;;;;;5095707;28;20457;-69
2021/10/06 12:40:37;;;;;;;7.15;3.08;;;13.70;99.90;;;;;;5096368;28;20080;-69
2021/10/06 12:43:13;;;;;;;5.15;3.15;;;13.80;99.90;;;;;;5096835;28;20078;-69
2021/10/06 12:45:59;;;;;;;7.63;3.83;;;13.90;99.90;;;;;;5096474;28;20036;-69
2021/10/06 12:48:43;;;;;;;3.72;3.20;;;13.90;99.90;;;;;;5096720;28;20040;-69